Time,TemperatureF,DewpointF,PressureIn,WindDirection,WindDirectionDegrees,WindSpeedMPH,WindSpeedGustMPH,Humidity,HourlyPrecipIn,Conditions,Clouds,dailyrainin,SolarRadiationWatts/m^2,SoftwareType,DateUTC
2013-05-10 00:05:00,62.3,43.0,30.12,SE,130,0.0,5.0,50,0.00,,,0.00,0,weatherlink.com 1.10,2013-05-10 06:05:00,
2013-05-10 00:20:00,60.3,43.0,30.13,SE,130,0.0,2.0,54,0.00,,,0.00,0,weatherlink.com 1.10,2013-05-10 06:20:00,
2013-05-10 00:35:00,59.3,44.0,30.13,ESE,102,1.0,4.0,57,0.00,,,0.00,0,weatherlink.com 1.10,2013-05-10 06:35:00,
2013-05-10 00:50:00,58.9,44.0,30.14,ESE,104,3.0,4.0,58,0.00,,,0.00,0,weatherlink.com 1.10,2013-05-10 06:50:00,
2013-05-10 01:05:00,58.9,43.0,30.14,SE,127,2.0,5.0,57,0.00,,,0.00,0,weatherlink.com 1.10,2013-05-10 07:05:00,
2013-05-10 01:20:00,57.7,43.0,30.15,ENE,63,5.0,6.0,59,0.00,,,0.00,0,weatherlink.com 1.10,2013-05-10 07:20:00,
2013-05-10 01:36:00,55.9,44.0,30.15,NE,43,1.0,4.0,64,0.00,,,0.00,0,weatherlink.com 1.10,2013-05-10 07:36:00,
2013-05-10 01:51:00,55.5,43.0,30.16,NE,43,4.0,4.0,63,0.00,,,0.00,0,weatherlink.com 1.10,2013-05-10 07:51:00,
2013-05-10 02:06:00,55.1,43.0,30.16,NE,38,3.0,5.0,64,0.00,,,0.00,0,weatherlink.com 1.10,2013-05-10 08:06:00,
2013-05-10 02:21:00,53.9,43.0,30.17,NE,54,4.0,6.0,67,0.00,,,0.00,0,weatherlink.com 1.10,2013-05-10 08:21:00,
2013-05-10 02:36:00,53.1,43.0,30.17,NE,48,5.0,6.0,69,0.00,,,0.00,0,weatherlink.com 1.10,2013-05-10 08:36:00,
2013-05-10 02:51:00,53.7,43.0,30.18,NE,54,0.0,5.0,67,0.00,,,0.00,0,weatherlink.com 1.10,2013-05-10 08:51:00,
2013-05-10 03:06:00,53.0,43.0,30.18,NE,43,0.0,2.0,70,0.00,,,0.00,0,weatherlink.com 1.10,2013-05-10 09:06:00,
2013-05-10 03:21:00,52.6,43.0,30.18,NE,43,2.0,3.0,70,0.00,,,0.00,0,weatherlink.com 1.10,2013-05-10 09:21:00,
2013-05-10 03:36:00,52.1,43.0,30.19,NE,43,0.0,3.0,70,0.00,,,0.00,0,weatherlink.com 1.10,2013-05-10 09:36:00,
2013-05-10 03:51:00,50.8,42.0,30.20,NE,43,0.0,1.0,73,0.00,,,0.00,0,weatherlink.com 1.10,2013-05-10 09:51:00,
2013-05-10 04:06:00,50.0,42.0,30.20,NE,43,1.0,2.0,74,0.00,,,0.00,0,weatherlink.com 1.10,2013-05-10 10:06:00,
2013-05-10 04:21:00,50.6,42.0,30.20,NE,43,0.0,2.0,72,0.00,,,0.00,0,weatherlink.com 1.10,2013-05-10 10:21:00,
2013-05-10 04:36:00,49.6,42.0,30.20,NE,43,1.0,2.0,76,0.00,,,0.00,0,weatherlink.com 1.10,2013-05-10 10:36:00,
2013-05-10 04:51:00,49.1,42.0,30.21,NE,43,0.0,2.0,76,0.00,,,0.00,0,weatherlink.com 1.10,2013-05-10 10:51:00,
2013-05-10 05:06:00,49.0,42.0,30.21,NE,43,3.0,4.0,76,0.00,,,0.00,0,weatherlink.com 1.10,2013-05-10 11:06:00,
2013-05-10 05:21:00,49.2,42.0,30.21,NE,43,0.0,1.0,75,0.00,,,0.00,0,weatherlink.com 1.10,2013-05-10 11:21:00,
2013-05-10 05:36:00,48.8,42.0,30.21,NE,43,3.0,3.0,77,0.00,,,0.00,0,weatherlink.com 1.10,2013-05-10 11:36:00,
2013-05-10 05:51:00,48.4,41.0,30.22,ENE,73,0.0,2.0,76,0.00,,,0.00,0,weatherlink.com 1.10,2013-05-10 11:51:00,
2013-05-10 06:06:00,47.0,41.0,30.23,ENE,73,0.0,1.0,79,0.00,,,0.00,5,weatherlink.com 1.10,2013-05-10 12:06:00,
2013-05-10 06:21:00,46.3,41.0,30.23,ENE,73,0.0,2.0,81,0.00,,,0.00,12,weatherlink.com 1.10,2013-05-10 12:21:00,
2013-05-10 06:36:00,46.4,41.0,30.24,NNE,31,0.0,2.0,82,0.00,,,0.00,19,weatherlink.com 1.10,2013-05-10 12:36:00,
2013-05-10 06:51:00,46.6,41.0,30.24,NNE,31,0.0,0.0,82,0.00,,,0.00,26,weatherlink.com 1.10,2013-05-10 12:51:00,
2013-05-10 07:06:00,45.4,41.0,30.25,NNE,21,0.0,2.0,84,0.00,,,0.00,46,weatherlink.com 1.10,2013-05-10 13:06:00,
2013-05-10 07:21:00,45.9,41.0,30.25,NNE,21,0.0,0.0,84,0.00,,,0.00,88,weatherlink.com 1.10,2013-05-10 13:21:00,
2013-05-10 07:37:00,46.2,42.0,30.26,NNE,21,0.0,0.0,84,0.00,,,0.00,128,weatherlink.com 1.10,2013-05-10 13:37:00,
2013-05-10 07:52:00,47.8,43.0,30.26,East,98,0.0,0.0,83,0.00,,,0.00,178,weatherlink.com 1.10,2013-05-10 13:52:00,
2013-05-10 08:07:00,48.2,44.0,30.27,East,98,0.0,0.0,84,0.00,,,0.00,220,weatherlink.com 1.10,2013-05-10 14:07:00,
2013-05-10 08:22:00,50.0,45.0,30.27,East,98,0.0,0.0,82,0.00,,,0.00,264,weatherlink.com 1.10,2013-05-10 14:22:00,
2013-05-10 08:37:00,50.4,45.0,30.28,SE,127,0.0,2.0,81,0.00,,,0.00,304,weatherlink.com 1.10,2013-05-10 14:37:00,
2013-05-10 08:52:00,51.8,46.0,30.27,SE,127,0.0,2.0,79,0.00,,,0.00,341,weatherlink.com 1.10,2013-05-10 14:52:00,
2013-05-10 09:07:00,53.0,46.0,30.28,SSW,208,1.0,4.0,76,0.00,,,0.00,392,weatherlink.com 1.10,2013-05-10 15:07:00,
2013-05-10 09:22:00,55.0,46.0,30.28,West,270,5.0,7.0,72,0.00,,,0.00,438,weatherlink.com 1.10,2013-05-10 15:22:00,
2013-05-10 09:37:00,55.4,45.0,30.28,West,281,5.0,7.0,67,0.00,,,0.00,469,weatherlink.com 1.10,2013-05-10 15:37:00,
2013-05-10 09:52:00,57.6,45.0,30.28,WNW,291,4.0,8.0,64,0.00,,,0.00,519,weatherlink.com 1.10,2013-05-10 15:52:00,
2013-05-10 10:07:00,59.5,44.0,30.28,NNW,328,7.0,9.0,57,0.00,,,0.00,563,weatherlink.com 1.10,2013-05-10 16:07:00,
2013-05-10 10:22:00,61.3,45.0,30.28,NW,320,6.0,9.0,55,0.00,,,0.00,603,weatherlink.com 1.10,2013-05-10 16:22:00,
2013-05-10 10:37:00,63.2,44.0,30.27,NW,308,6.0,10.0,50,0.00,,,0.00,636,weatherlink.com 1.10,2013-05-10 16:37:00,
2013-05-10 10:52:00,64.7,45.0,30.27,West,276,5.0,11.0,49,0.00,,,0.00,670,weatherlink.com 1.10,2013-05-10 16:52:00,
2013-05-10 11:07:00,66.6,46.0,30.27,NW,304,8.0,13.0,47,0.00,,,0.00,703,weatherlink.com 1.10,2013-05-10 17:07:00,
2013-05-10 11:23:00,67.9,44.0,30.27,WNW,290,6.0,10.0,43,0.00,,,0.00,737,weatherlink.com 1.10,2013-05-10 17:23:00,
2013-05-10 11:38:00,69.2,44.0,30.26,West,277,5.0,11.0,41,0.00,,,0.00,759,weatherlink.com 1.10,2013-05-10 17:38:00,
2013-05-10 11:53:00,71.2,43.0,30.26,WNW,285,6.0,12.0,37,0.00,,,0.00,786,weatherlink.com 1.10,2013-05-10 17:53:00,
2013-05-10 12:08:00,72.1,41.0,30.25,West,270,7.0,14.0,33,0.00,,,0.00,812,weatherlink.com 1.10,2013-05-10 18:08:00,
2013-05-10 12:23:00,72.6,41.0,30.25,West,273,7.0,10.0,32,0.00,,,0.00,831,weatherlink.com 1.10,2013-05-10 18:23:00,
2013-05-10 12:38:00,73.4,40.0,30.24,SW,216,2.0,12.0,30,0.00,,,0.00,851,weatherlink.com 1.10,2013-05-10 18:38:00,
2013-05-10 12:53:00,74.4,39.0,30.24,NNE,25,4.0,12.0,28,0.00,,,0.00,861,weatherlink.com 1.10,2013-05-10 18:53:00,
2013-05-10 13:08:00,74.6,40.0,30.24,NE,48,5.0,12.0,29,0.00,,,0.00,875,weatherlink.com 1.10,2013-05-10 19:08:00,
2013-05-10 13:23:00,75.6,40.0,30.23,SSW,198,5.0,10.0,28,0.00,,,0.00,882,weatherlink.com 1.10,2013-05-10 19:23:00,
2013-05-10 13:38:00,75.1,40.0,30.22,SSW,198,5.0,11.0,28,0.00,,,0.00,886,weatherlink.com 1.10,2013-05-10 19:38:00,
2013-05-10 13:53:00,75.3,41.0,30.21,South,180,4.0,7.0,29,0.00,,,0.00,882,weatherlink.com 1.10,2013-05-10 19:53:00,
2013-05-10 14:08:00,75.9,40.0,30.21,SSW,203,3.0,10.0,27,0.00,,,0.00,882,weatherlink.com 1.10,2013-05-10 20:08:00,
2013-05-10 14:23:00,76.8,40.0,30.20,West,277,10.0,11.0,27,0.00,,,0.00,872,weatherlink.com 1.10,2013-05-10 20:23:00,
2013-05-10 14:38:00,77.5,40.0,30.20,WSW,239,7.0,14.0,26,0.00,,,0.00,870,weatherlink.com 1.10,2013-05-10 20:38:00,
2013-05-10 14:53:00,77.0,39.0,30.20,WSW,247,6.0,10.0,25,0.00,,,0.00,861,weatherlink.com 1.10,2013-05-10 20:53:00,
2013-05-10 15:08:00,78.2,40.0,30.19,NNW,339,3.0,13.0,25,0.00,,,0.00,847,weatherlink.com 1.10,2013-05-10 21:08:00,
2013-05-10 15:23:00,77.8,38.0,30.19,NW,308,2.0,11.0,24,0.00,,,0.00,831,weatherlink.com 1.10,2013-05-10 21:23:00,
2013-05-10 15:38:00,78.4,38.0,30.18,NW,320,11.0,12.0,23,0.00,,,0.00,812,weatherlink.com 1.10,2013-05-10 21:38:00,
2013-05-10 15:53:00,79.1,38.0,30.18,WNW,292,5.0,9.0,23,0.00,,,0.00,788,weatherlink.com 1.10,2013-05-10 21:53:00,
2013-05-10 16:08:00,79.1,37.0,30.17,West,267,1.0,12.0,22,0.00,,,0.00,758,weatherlink.com 1.10,2013-05-10 22:08:00,
2013-05-10 16:23:00,79.8,36.0,30.17,NNW,336,4.0,11.0,21,0.00,,,0.00,724,weatherlink.com 1.10,2013-05-10 22:23:00,
2013-05-10 16:38:00,80.0,38.0,30.17,NW,305,11.0,14.0,22,0.00,,,0.00,700,weatherlink.com 1.10,2013-05-10 22:38:00,
2013-05-10 16:53:00,79.2,37.0,30.16,West,272,3.0,12.0,22,0.00,,,0.00,657,weatherlink.com 1.10,2013-05-10 22:53:00,
2013-05-10 17:08:00,80.1,37.0,30.16,North,352,0.0,13.0,21,0.00,,,0.00,621,weatherlink.com 1.10,2013-05-10 23:08:00,
2013-05-10 17:23:00,80.1,38.0,30.16,WNW,289,5.0,12.0,22,0.00,,,0.00,582,weatherlink.com 1.10,2013-05-10 23:23:00,
2013-05-10 17:38:00,80.4,38.0,30.16,WNW,291,9.0,10.0,22,0.00,,,0.00,527,weatherlink.com 1.10,2013-05-10 23:38:00,
2013-05-10 17:53:00,79.6,38.0,30.15,West,270,6.0,13.0,22,0.00,,,0.00,501,weatherlink.com 1.10,2013-05-10 23:53:00,
2013-05-10 18:08:00,79.4,37.0,30.15,WSW,256,7.0,9.0,22,0.00,,,0.00,374,weatherlink.com 1.10,2013-05-11 00:08:00,
2013-05-10 18:23:00,77.8,37.0,30.15,West,275,4.0,9.0,23,0.00,,,0.00,60,weatherlink.com 1.10,2013-05-11 00:23:00,
2013-05-10 18:38:00,75.8,40.0,30.15,West,269,0.0,5.0,28,0.00,,,0.00,51,weatherlink.com 1.10,2013-05-11 00:38:00,
2013-05-10 18:53:00,75.0,38.0,30.15,WNW,293,3.0,4.0,26,0.00,,,0.00,44,weatherlink.com 1.10,2013-05-11 00:53:00,
2013-05-10 19:08:00,72.6,39.0,30.16,WNW,292,4.0,6.0,30,0.00,,,0.00,39,weatherlink.com 1.10,2013-05-11 01:08:00,
2013-05-10 19:23:00,73.2,36.0,30.16,WSW,256,11.0,17.0,26,0.00,,,0.00,37,weatherlink.com 1.10,2013-05-11 01:23:00,
2013-05-10 19:38:00,73.3,36.0,30.16,West,269,6.0,10.0,26,0.00,,,0.00,37,weatherlink.com 1.10,2013-05-11 01:38:00,
2013-05-10 19:53:00,73.3,37.0,30.17,NNW,341,7.0,12.0,27,0.00,,,0.00,32,weatherlink.com 1.10,2013-05-11 01:53:00,
2013-05-10 20:08:00,72.7,38.0,30.19,North,4,7.0,15.0,28,0.00,,,0.00,47,weatherlink.com 1.10,2013-05-11 02:08:00,
2013-05-10 20:23:00,71.5,40.0,30.19,NNW,331,17.0,25.0,32,0.00,,,0.00,70,weatherlink.com 1.10,2013-05-11 02:23:00,
2013-05-10 20:38:00,70.3,41.0,30.19,North,357,7.0,17.0,35,0.00,,,0.00,42,weatherlink.com 1.10,2013-05-11 02:38:00,
2013-05-10 20:53:00,69.6,39.0,30.18,NNE,31,9.0,12.0,33,0.00,,,0.00,5,weatherlink.com 1.10,2013-05-11 02:53:00,
2013-05-10 21:08:00,68.7,39.0,30.19,NNE,15,0.0,10.0,34,0.00,,,0.00,0,weatherlink.com 1.10,2013-05-11 03:08:00,
2013-05-10 21:24:00,66.2,41.0,30.19,South,177,3.0,7.0,40,0.00,,,0.00,0,weatherlink.com 1.10,2013-05-11 03:24:00,
2013-05-10 21:39:00,64.6,41.0,30.20,NE,48,5.0,7.0,42,0.00,,,0.00,0,weatherlink.com 1.10,2013-05-11 03:39:00,
2013-05-10 21:54:00,64.7,41.0,30.21,East,98,0.0,3.0,42,0.00,,,0.00,0,weatherlink.com 1.10,2013-05-11 03:54:00,
2013-05-10 22:09:00,64.0,40.0,30.21,NE,48,4.0,5.0,42,0.00,,,0.00,0,weatherlink.com 1.10,2013-05-11 04:09:00,
2013-05-10 22:24:00,63.0,41.0,30.21,NE,43,0.0,5.0,44,0.00,,,0.00,0,weatherlink.com 1.10,2013-05-11 04:24:00,
2013-05-10 22:39:00,62.6,40.0,30.21,NE,43,0.0,3.0,44,0.00,,,0.00,0,weatherlink.com 1.10,2013-05-11 04:39:00,
2013-05-10 22:54:00,62.2,39.0,30.22,ENE,62,5.0,7.0,43,0.00,,,0.00,0,weatherlink.com 1.10,2013-05-11 04:54:00,
2013-05-10 23:09:00,61.6,40.0,30.22,NNE,25,0.0,6.0,45,0.00,,,0.00,0,weatherlink.com 1.10,2013-05-11 05:09:00,
2013-05-10 23:24:00,62.2,40.0,30.22,NNE,14,4.0,8.0,44,0.00,,,0.00,0,weatherlink.com 1.10,2013-05-11 05:24:00,
2013-05-10 23:39:00,60.4,39.0,30.22,ENE,63,0.0,3.0,45,0.00,,,0.00,0,weatherlink.com 1.10,2013-05-11 05:39:00,
2013-05-10 23:54:00,60.0,39.0,30.22,ENE,57,2.0,4.0,46,0.00,,,0.00,0,weatherlink.com 1.10,2013-05-11 05:54:00,